sensor_id;sensor_type;location;lat;lon;timestamp;P1;durP1;ratioP1;P2;durP2;ratioP2
72483;SDS011;74199;52.014;5.430;2023-11-19T00:00:08;8.32;;;2.80;;
72483;SDS011;74199;52.014;5.430;2023-11-19T00:02:40;6.38;;;2.50;;
72483;SDS011;74199;52.014;5.430;2023-11-19T00:05:08;6.65;;;2.42;;
72483;SDS011;74199;52.014;5.430;2023-11-19T00:07:35;6.85;;;2.80;;
72483;SDS011;74199;52.014;5.430;2023-11-19T00:10:03;5.95;;;2.15;;
72483;SDS011;74199;52.014;5.430;2023-11-19T00:12:33;8.65;;;2.30;;
72483;SDS011;74199;52.014;5.430;2023-11-19T00:15:00;6.82;;;2.67;;
72483;SDS011;74199;52.014;5.430;2023-11-19T00:17:27;9.75;;;2.53;;
72483;SDS011;74199;52.014;5.430;2023-11-19T00:19:54;10.20;;;2.90;;
72483;SDS011;74199;52.014;5.430;2023-11-19T00:22:21;8.00;;;2.25;;
72483;SDS011;74199;52.014;5.430;2023-11-19T00:24:49;7.75;;;2.22;;
72483;SDS011;74199;52.014;5.430;2023-11-19T00:27:16;5.45;;;2.40;;
72483;SDS011;74199;52.014;5.430;2023-11-19T00:29:43;9.60;;;2.63;;
72483;SDS011;74199;52.014;5.430;2023-11-19T00:32:11;7.78;;;2.35;;
72483;SDS011;74199;52.014;5.430;2023-11-19T00:34:38;8.20;;;2.20;;
72483;SDS011;74199;52.014;5.430;2023-11-19T00:37:05;7.28;;;2.50;;
72483;SDS011;74199;52.014;5.430;2023-11-19T00:39:33;8.25;;;1.90;;
72483;SDS011;74199;52.014;5.430;2023-11-19T00:42:00;6.45;;;2.25;;
72483;SDS011;74199;52.014;5.430;2023-11-19T00:44:27;11.65;;;2.42;;
72483;SDS011;74199;52.014;5.430;2023-11-19T00:46:54;9.38;;;2.17;;
72483;SDS011;74199;52.014;5.430;2023-11-19T00:49:21;7.95;;;2.38;;
72483;SDS011;74199;52.014;5.430;2023-11-19T00:51:48;7.95;;;2.10;;
72483;SDS011;74199;52.014;5.430;2023-11-19T00:54:15;7.40;;;2.20;;
72483;SDS011;74199;52.014;5.430;2023-11-19T00:56:42;9.65;;;2.45;;
72483;SDS011;74199;52.014;5.430;2023-11-19T00:59:10;10.85;;;2.20;;
72483;SDS011;74199;52.014;5.430;2023-11-19T01:01:38;7.13;;;2.30;;
72483;SDS011;74199;52.014;5.430;2023-11-19T01:04:05;10.68;;;2.00;;
72483;SDS011;74199;52.014;5.430;2023-11-19T01:06:32;10.75;;;2.30;;
72483;SDS011;74199;52.014;5.430;2023-11-19T01:08:59;10.60;;;2.25;;
72483;SDS011;74199;52.014;5.430;2023-11-19T01:11:26;8.38;;;2.30;;
72483;SDS011;74199;52.014;5.430;2023-11-19T01:13:54;6.55;;;2.20;;
72483;SDS011;74199;52.014;5.430;2023-11-19T01:16:21;7.63;;;2.00;;
72483;SDS011;74199;52.014;5.430;2023-11-19T01:18:49;12.63;;;2.45;;
72483;SDS011;74199;52.014;5.430;2023-11-19T01:21:16;12.65;;;2.47;;
72483;SDS011;74199;52.014;5.430;2023-11-19T01:23:43;12.23;;;2.63;;
72483;SDS011;74199;52.014;5.430;2023-11-19T01:26:11;12.73;;;2.05;;
72483;SDS011;74199;52.014;5.430;2023-11-19T01:28:39;11.55;;;2.50;;
72483;SDS011;74199;52.014;5.430;2023-11-19T01:31:17;7.93;;;2.38;;
72483;SDS011;74199;52.014;5.430;2023-11-19T01:33:45;11.55;;;2.42;;
72483;SDS011;74199;52.014;5.430;2023-11-19T01:36:13;8.75;;;2.22;;
72483;SDS011;74199;52.014;5.430;2023-11-19T01:38:40;10.73;;;2.25;;
72483;SDS011;74199;52.014;5.430;2023-11-19T01:41:08;15.98;;;3.05;;
72483;SDS011;74199;52.014;5.430;2023-11-19T01:43:35;11.80;;;2.78;;
72483;SDS011;74199;52.014;5.430;2023-11-19T01:46:05;12.60;;;2.10;;
72483;SDS011;74199;52.014;5.430;2023-11-19T01:48:42;13.30;;;2.53;;
72483;SDS011;74199;52.014;5.430;2023-11-19T01:51:12;14.20;;;2.67;;
72483;SDS011;74199;52.014;5.430;2023-11-19T01:53:43;11.65;;;2.83;;
72483;SDS011;74199;52.014;5.430;2023-11-19T01:56:12;11.90;;;2.22;;
72483;SDS011;74199;52.014;5.430;2023-11-19T01:58:41;11.30;;;2.30;;
72483;SDS011;74199;52.014;5.430;2023-11-19T02:01:11;10.07;;;2.47;;
72483;SDS011;74199;52.014;5.430;2023-11-19T02:03:39;19.55;;;2.75;;
72483;SDS011;74199;52.014;5.430;2023-11-19T02:06:07;10.05;;;2.25;;
72483;SDS011;74199;52.014;5.430;2023-11-19T02:08:38;10.73;;;2.80;;
72483;SDS011;74199;52.014;5.430;2023-11-19T02:11:05;12.13;;;2.35;;
72483;SDS011;74199;52.014;5.430;2023-11-19T02:13:35;9.82;;;2.25;;
72483;SDS011;74199;52.014;5.430;2023-11-19T02:16:05;16.10;;;2.45;;
72483;SDS011;74199;52.014;5.430;2023-11-19T02:18:33;19.55;;;3.17;;
72483;SDS011;74199;52.014;5.430;2023-11-19T02:21:00;16.13;;;2.80;;
72483;SDS011;74199;52.014;5.430;2023-11-19T02:23:27;15.65;;;2.80;;
72483;SDS011;74199;52.014;5.430;2023-11-19T02:28:53;14.23;;;2.50;;
72483;SDS011;74199;52.014;5.430;2023-11-19T02:31:20;19.88;;;2.78;;
72483;SDS011;74199;52.014;5.430;2023-11-19T02:33:47;13.82;;;2.72;;
72483;SDS011;74199;52.014;5.430;2023-11-19T02:36:14;20.05;;;3.17;;
72483;SDS011;74199;52.014;5.430;2023-11-19T02:38:41;21.05;;;3.70;;
72483;SDS011;74199;52.014;5.430;2023-11-19T02:41:08;11.35;;;2.30;;
72483;SDS011;74199;52.014;5.430;2023-11-19T02:43:36;17.00;;;2.83;;
72483;SDS011;74199;52.014;5.430;2023-11-19T02:46:05;16.10;;;2.85;;
72483;SDS011;74199;52.014;5.430;2023-11-19T02:48:38;17.33;;;3.13;;
72483;SDS011;74199;52.014;5.430;2023-11-19T02:51:05;21.98;;;3.35;;
72483;SDS011;74199;52.014;5.430;2023-11-19T02:53:36;23.40;;;3.58;;
72483;SDS011;74199;52.014;5.430;2023-11-19T02:56:07;17.13;;;2.83;;
72483;SDS011;74199;52.014;5.430;2023-11-19T02:58:52;26.08;;;3.90;;
72483;SDS011;74199;52.014;5.430;2023-11-19T03:01:26;21.23;;;3.25;;
72483;SDS011;74199;52.014;5.430;2023-11-19T03:03:58;15.15;;;3.20;;
72483;SDS011;74199;52.014;5.430;2023-11-19T03:06:28;22.33;;;3.55;;
72483;SDS011;74199;52.014;5.430;2023-11-19T03:08:56;17.38;;;3.10;;
72483;SDS011;74199;52.014;5.430;2023-11-19T03:11:23;21.92;;;3.00;;
72483;SDS011;74199;52.014;5.430;2023-11-19T03:13:51;21.38;;;3.85;;
72483;SDS011;74199;52.014;5.430;2023-11-19T03:16:18;25.55;;;3.58;;
72483;SDS011;74199;52.014;5.430;2023-11-19T03:18:45;15.57;;;2.65;;
72483;SDS011;74199;52.014;5.430;2023-11-19T03:21:12;24.70;;;3.47;;
72483;SDS011;74199;52.014;5.430;2023-11-19T03:23:39;21.75;;;3.20;;
72483;SDS011;74199;52.014;5.430;2023-11-19T03:26:06;20.05;;;3.40;;
72483;SDS011;74199;52.014;5.430;2023-11-19T03:28:34;21.65;;;3.90;;
72483;SDS011;74199;52.014;5.430;2023-11-19T03:31:04;21.35;;;3.85;;
72483;SDS011;74199;52.014;5.430;2023-11-19T03:33:31;21.67;;;3.08;;
72483;SDS011;74199;52.014;5.430;2023-11-19T03:35:58;20.40;;;3.78;;
72483;SDS011;74199;52.014;5.430;2023-11-19T03:38:25;24.65;;;3.65;;
72483;SDS011;74199;52.014;5.430;2023-11-19T03:40:52;21.55;;;3.78;;
72483;SDS011;74199;52.014;5.430;2023-11-19T03:43:19;30.85;;;4.85;;
72483;SDS011;74199;52.014;5.430;2023-11-19T03:45:46;23.17;;;3.65;;
72483;SDS011;74199;52.014;5.430;2023-11-19T03:48:13;22.17;;;3.63;;
72483;SDS011;74199;52.014;5.430;2023-11-19T03:50:42;22.00;;;4.20;;
72483;SDS011;74199;52.014;5.430;2023-11-19T03:53:11;21.73;;;4.20;;
72483;SDS011;74199;52.014;5.430;2023-11-19T03:55:38;23.50;;;3.80;;
72483;SDS011;74199;52.014;5.430;2023-11-19T03:58:05;27.15;;;4.03;;
72483;SDS011;74199;52.014;5.430;2023-11-19T04:00:32;26.88;;;4.28;;
72483;SDS011;74199;52.014;5.430;2023-11-19T04:02:59;22.67;;;3.53;;
72483;SDS011;74199;52.014;5.430;2023-11-19T04:05:27;26.25;;;4.13;;
72483;SDS011;74199;52.014;5.430;2023-11-19T04:07:54;27.15;;;4.47;;
72483;SDS011;74199;52.014;5.430;2023-11-19T04:10:21;25.75;;;4.47;;
72483;SDS011;74199;52.014;5.430;2023-11-19T04:12:49;22.33;;;3.92;;
72483;SDS011;74199;52.014;5.430;2023-11-19T04:15:16;22.00;;;3.63;;
72483;SDS011;74199;52.014;5.430;2023-11-19T04:17:43;23.42;;;4.05;;
72483;SDS011;74199;52.014;5.430;2023-11-19T04:20:11;26.67;;;4.00;;
72483;SDS011;74199;52.014;5.430;2023-11-19T04:22:40;26.65;;;4.05;;
72483;SDS011;74199;52.014;5.430;2023-11-19T04:25:08;23.98;;;4.15;;
72483;SDS011;74199;52.014;5.430;2023-11-19T04:27:35;27.27;;;4.80;;
72483;SDS011;74199;52.014;5.430;2023-11-19T04:30:03;27.50;;;4.50;;
72483;SDS011;74199;52.014;5.430;2023-11-19T04:32:31;26.50;;;4.75;;
72483;SDS011;74199;52.014;5.430;2023-11-19T04:34:58;26.98;;;5.45;;
72483;SDS011;74199;52.014;5.430;2023-11-19T04:37:25;28.08;;;4.20;;
72483;SDS011;74199;52.014;5.430;2023-11-19T04:39:52;21.38;;;4.20;;
72483;SDS011;74199;52.014;5.430;2023-11-19T04:42:21;25.25;;;4.68;;
72483;SDS011;74199;52.014;5.430;2023-11-19T04:44:49;24.40;;;3.83;;
72483;SDS011;74199;52.014;5.430;2023-11-19T04:47:16;24.88;;;3.97;;
72483;SDS011;74199;52.014;5.430;2023-11-19T04:49:43;21.15;;;3.70;;
72483;SDS011;74199;52.014;5.430;2023-11-19T04:52:10;28.10;;;4.25;;
72483;SDS011;74199;52.014;5.430;2023-11-19T04:54:42;25.10;;;4.18;;
72483;SDS011;74199;52.014;5.430;2023-11-19T04:57:11;26.90;;;3.58;;
72483;SDS011;74199;52.014;5.430;2023-11-19T04:59:39;23.92;;;4.43;;
72483;SDS011;74199;52.014;5.430;2023-11-19T05:02:06;23.17;;;3.47;;
72483;SDS011;74199;52.014;5.430;2023-11-19T05:04:32;22.63;;;3.83;;
72483;SDS011;74199;52.014;5.430;2023-11-19T05:06:59;21.90;;;4.47;;
72483;SDS011;74199;52.014;5.430;2023-11-19T05:09:27;22.92;;;4.70;;
72483;SDS011;74199;52.014;5.430;2023-11-19T05:11:54;29.33;;;4.47;;
72483;SDS011;74199;52.014;5.430;2023-11-19T05:14:21;27.85;;;4.57;;
72483;SDS011;74199;52.014;5.430;2023-11-19T05:16:48;24.83;;;4.70;;
72483;SDS011;74199;52.014;5.430;2023-11-19T05:19:15;28.05;;;5.13;;
72483;SDS011;74199;52.014;5.430;2023-11-19T05:21:43;26.02;;;4.22;;
72483;SDS011;74199;52.014;5.430;2023-11-19T05:24:10;28.33;;;5.07;;
72483;SDS011;74199;52.014;5.430;2023-11-19T05:26:40;26.17;;;4.07;;
72483;SDS011;74199;52.014;5.430;2023-11-19T05:29:07;20.02;;;4.10;;
72483;SDS011;74199;52.014;5.430;2023-11-19T05:31:34;30.13;;;4.55;;
72483;SDS011;74199;52.014;5.430;2023-11-19T05:34:03;21.00;;;4.10;;
72483;SDS011;74199;52.014;5.430;2023-11-19T05:36:30;31.02;;;4.18;;
72483;SDS011;74199;52.014;5.430;2023-11-19T05:38:57;25.33;;;4.47;;
72483;SDS011;74199;52.014;5.430;2023-11-19T05:41:24;28.27;;;3.75;;
72483;SDS011;74199;52.014;5.430;2023-11-19T05:43:51;24.95;;;4.88;;
72483;SDS011;74199;52.014;5.430;2023-11-19T05:46:18;24.33;;;3.90;;
72483;SDS011;74199;52.014;5.430;2023-11-19T05:48:47;32.05;;;4.43;;
72483;SDS011;74199;52.014;5.430;2023-11-19T05:51:14;22.05;;;3.63;;
72483;SDS011;74199;52.014;5.430;2023-11-19T05:53:42;34.80;;;5.13;;
72483;SDS011;74199;52.014;5.430;2023-11-19T05:56:10;24.63;;;4.65;;
72483;SDS011;74199;52.014;5.430;2023-11-19T05:58:37;28.15;;;4.63;;
72483;SDS011;74199;52.014;5.430;2023-11-19T06:01:05;33.10;;;5.10;;
72483;SDS011;74199;52.014;5.430;2023-11-19T06:03:34;32.45;;;5.10;;
72483;SDS011;74199;52.014;5.430;2023-11-19T06:06:01;26.73;;;4.47;;
72483;SDS011;74199;52.014;5.430;2023-11-19T06:08:28;25.77;;;4.15;;
72483;SDS011;74199;52.014;5.430;2023-11-19T06:10:57;26.02;;;4.35;;
72483;SDS011;74199;52.014;5.430;2023-11-19T06:13:24;24.05;;;4.60;;
72483;SDS011;74199;52.014;5.430;2023-11-19T06:15:52;24.80;;;3.95;;
72483;SDS011;74199;52.014;5.430;2023-11-19T06:18:19;23.50;;;4.40;;
72483;SDS011;74199;52.014;5.430;2023-11-19T06:20:47;24.02;;;4.13;;
72483;SDS011;74199;52.014;5.430;2023-11-19T06:23:14;25.48;;;4.30;;
72483;SDS011;74199;52.014;5.430;2023-11-19T06:25:40;25.23;;;4.25;;
72483;SDS011;74199;52.014;5.430;2023-11-19T06:28:08;28.75;;;4.45;;
72483;SDS011;74199;52.014;5.430;2023-11-19T06:30:35;25.65;;;4.22;;
72483;SDS011;74199;52.014;5.430;2023-11-19T06:33:02;32.05;;;4.63;;
72483;SDS011;74199;52.014;5.430;2023-11-19T06:35:30;27.70;;;5.05;;
72483;SDS011;74199;52.014;5.430;2023-11-19T06:38:03;32.70;;;4.72;;
72483;SDS011;74199;52.014;5.430;2023-11-19T06:40:33;26.17;;;5.20;;
72483;SDS011;74199;52.014;5.430;2023-11-19T06:43:03;34.63;;;4.68;;
72483;SDS011;74199;52.014;5.430;2023-11-19T06:45:31;24.63;;;4.40;;
72483;SDS011;74199;52.014;5.430;2023-11-19T06:48:00;30.83;;;4.47;;
72483;SDS011;74199;52.014;5.430;2023-11-19T06:50:30;26.70;;;4.63;;
72483;SDS011;74199;52.014;5.430;2023-11-19T06:53:00;29.58;;;4.78;;
72483;SDS011;74199;52.014;5.430;2023-11-19T06:55:27;31.63;;;5.13;;
72483;SDS011;74199;52.014;5.430;2023-11-19T06:57:54;25.65;;;4.43;;
72483;SDS011;74199;52.014;5.430;2023-11-19T07:00:21;29.33;;;4.90;;
72483;SDS011;74199;52.014;5.430;2023-11-19T07:02:48;32.53;;;4.90;;
72483;SDS011;74199;52.014;5.430;2023-11-19T07:05:16;48.13;;;5.85;;
72483;SDS011;74199;52.014;5.430;2023-11-19T07:07:43;39.20;;;6.47;;
72483;SDS011;74199;52.014;5.430;2023-11-19T07:10:12;42.15;;;5.85;;
72483;SDS011;74199;52.014;5.430;2023-11-19T07:12:39;35.30;;;5.68;;
72483;SDS011;74199;52.014;5.430;2023-11-19T07:15:06;39.53;;;6.28;;
72483;SDS011;74199;52.014;5.430;2023-11-19T07:17:33;35.08;;;5.95;;
72483;SDS011;74199;52.014;5.430;2023-11-19T07:20:01;32.85;;;5.18;;
72483;SDS011;74199;52.014;5.430;2023-11-19T07:22:28;28.77;;;4.85;;
72483;SDS011;74199;52.014;5.430;2023-11-19T07:24:58;28.83;;;4.80;;
72483;SDS011;74199;52.014;5.430;2023-11-19T07:27:25;39.70;;;5.00;;
72483;SDS011;74199;52.014;5.430;2023-11-19T07:29:52;29.85;;;4.65;;
72483;SDS011;74199;52.014;5.430;2023-11-19T07:32:19;30.38;;;4.75;;
72483;SDS011;74199;52.014;5.430;2023-11-19T07:34:46;28.33;;;3.83;;
72483;SDS011;74199;52.014;5.430;2023-11-19T07:37:13;29.35;;;4.97;;
72483;SDS011;74199;52.014;5.430;2023-11-19T07:39:40;36.55;;;5.28;;
72483;SDS011;74199;52.014;5.430;2023-11-19T07:42:07;29.05;;;4.45;;
72483;SDS011;74199;52.014;5.430;2023-11-19T07:44:36;27.20;;;4.97;;
72483;SDS011;74199;52.014;5.430;2023-11-19T07:47:03;35.30;;;5.25;;
72483;SDS011;74199;52.014;5.430;2023-11-19T07:49:30;30.98;;;4.32;;
72483;SDS011;74199;52.014;5.430;2023-11-19T07:51:57;31.00;;;5.03;;
72483;SDS011;74199;52.014;5.430;2023-11-19T07:54:24;28.98;;;4.35;;
72483;SDS011;74199;52.014;5.430;2023-11-19T07:56:51;29.10;;;5.22;;
72483;SDS011;74199;52.014;5.430;2023-11-19T07:59:18;27.58;;;4.97;;
72483;SDS011;74199;52.014;5.430;2023-11-19T08:01:45;24.70;;;3.72;;
72483;SDS011;74199;52.014;5.430;2023-11-19T08:04:12;28.92;;;4.88;;
72483;SDS011;74199;52.014;5.430;2023-11-19T08:06:40;21.77;;;4.00;;
72483;SDS011;74199;52.014;5.430;2023-11-19T08:09:07;23.20;;;4.00;;
72483;SDS011;74199;52.014;5.430;2023-11-19T08:11:43;32.42;;;4.90;;
72483;SDS011;74199;52.014;5.430;2023-11-19T08:14:10;34.40;;;4.90;;
72483;SDS011;74199;52.014;5.430;2023-11-19T08:16:38;23.73;;;3.90;;
72483;SDS011;74199;52.014;5.430;2023-11-19T08:19:06;30.85;;;4.50;;
72483;SDS011;74199;52.014;5.430;2023-11-19T08:21:32;25.35;;;4.32;;
72483;SDS011;74199;52.014;5.430;2023-11-19T08:23:59;31.55;;;4.80;;
72483;SDS011;74199;52.014;5.430;2023-11-19T08:26:26;24.75;;;3.92;;
72483;SDS011;74199;52.014;5.430;2023-11-19T08:28:53;23.08;;;3.75;;
72483;SDS011;74199;52.014;5.430;2023-11-19T08:31:20;28.55;;;4.85;;
72483;SDS011;74199;52.014;5.430;2023-11-19T08:33:47;22.65;;;3.95;;
72483;SDS011;74199;52.014;5.430;2023-11-19T08:36:17;27.45;;;4.47;;
72483;SDS011;74199;52.014;5.430;2023-11-19T08:38:44;25.60;;;3.97;;
72483;SDS011;74199;52.014;5.430;2023-11-19T08:41:11;27.10;;;4.25;;
72483;SDS011;74199;52.014;5.430;2023-11-19T08:43:38;24.98;;;4.78;;
72483;SDS011;74199;52.014;5.430;2023-11-19T08:46:10;28.85;;;3.90;;
72483;SDS011;74199;52.014;5.430;2023-11-19T08:48:37;24.58;;;4.05;;
72483;SDS011;74199;52.014;5.430;2023-11-19T08:51:05;33.92;;;3.97;;
72483;SDS011;74199;52.014;5.430;2023-11-19T08:53:32;27.83;;;3.60;;
72483;SDS011;74199;52.014;5.430;2023-11-19T08:55:59;20.98;;;4.40;;
72483;SDS011;74199;52.014;5.430;2023-11-19T08:58:28;27.20;;;4.97;;
72483;SDS011;74199;52.014;5.430;2023-11-19T09:00:55;32.80;;;5.07;;
72483;SDS011;74199;52.014;5.430;2023-11-19T09:03:22;28.63;;;4.47;;
72483;SDS011;74199;52.014;5.430;2023-11-19T09:05:50;29.52;;;4.10;;
72483;SDS011;74199;52.014;5.430;2023-11-19T09:08:17;29.83;;;4.03;;
72483;SDS011;74199;52.014;5.430;2023-11-19T09:10:44;26.52;;;4.18;;
72483;SDS011;74199;52.014;5.430;2023-11-19T09:13:12;27.38;;;4.03;;
72483;SDS011;74199;52.014;5.430;2023-11-19T09:15:39;28.30;;;4.22;;
72483;SDS011;74199;52.014;5.430;2023-11-19T09:18:06;31.10;;;5.53;;
72483;SDS011;74199;52.014;5.430;2023-11-19T09:20:33;25.92;;;3.80;;
72483;SDS011;74199;52.014;5.430;2023-11-19T09:23:05;32.75;;;4.25;;
72483;SDS011;74199;52.014;5.430;2023-11-19T09:25:35;28.95;;;4.47;;
72483;SDS011;74199;52.014;5.430;2023-11-19T09:28:05;23.95;;;3.80;;
72483;SDS011;74199;52.014;5.430;2023-11-19T09:30:35;26.65;;;4.53;;
72483;SDS011;74199;52.014;5.430;2023-11-19T09:33:02;23.88;;;4.30;;
72483;SDS011;74199;52.014;5.430;2023-11-19T09:35:29;28.00;;;4.97;;
72483;SDS011;74199;52.014;5.430;2023-11-19T09:37:56;22.92;;;4.53;;
72483;SDS011;74199;52.014;5.430;2023-11-19T09:40:23;23.52;;;4.05;;
72483;SDS011;74199;52.014;5.430;2023-11-19T09:42:50;31.92;;;4.78;;
72483;SDS011;74199;52.014;5.430;2023-11-19T09:45:17;20.90;;;3.53;;
72483;SDS011;74199;52.014;5.430;2023-11-19T09:47:47;26.27;;;3.63;;
72483;SDS011;74199;52.014;5.430;2023-11-19T09:50:19;26.45;;;5.25;;
72483;SDS011;74199;52.014;5.430;2023-11-19T09:52:46;27.27;;;4.50;;
72483;SDS011;74199;52.014;5.430;2023-11-19T09:55:14;28.73;;;3.92;;
72483;SDS011;74199;52.014;5.430;2023-11-19T09:57:41;24.13;;;4.13;;
72483;SDS011;74199;52.014;5.430;2023-11-19T10:00:10;31.92;;;5.53;;
72483;SDS011;74199;52.014;5.430;2023-11-19T10:02:41;18.63;;;3.92;;
72483;SDS011;74199;52.014;5.430;2023-11-19T10:07:41;28.17;;;4.22;;
72483;SDS011;74199;52.014;5.430;2023-11-19T10:10:09;28.20;;;4.85;;
72483;SDS011;74199;52.014;5.430;2023-11-19T10:12:40;24.63;;;4.38;;
72483;SDS011;74199;52.014;5.430;2023-11-19T10:15:24;28.02;;;4.45;;
72483;SDS011;74199;52.014;5.430;2023-11-19T10:17:57;25.83;;;4.13;;
72483;SDS011;74199;52.014;5.430;2023-11-19T10:20:24;23.38;;;4.28;;
72483;SDS011;74199;52.014;5.430;2023-11-19T10:22:52;29.67;;;4.55;;
72483;SDS011;74199;52.014;5.430;2023-11-19T10:25:21;26.38;;;4.72;;
72483;SDS011;74199;52.014;5.430;2023-11-19T10:27:50;22.05;;;4.20;;
72483;SDS011;74199;52.014;5.430;2023-11-19T10:30:21;19.15;;;3.47;;
72483;SDS011;74199;52.014;5.430;2023-11-19T10:33:04;23.80;;;4.15;;
72483;SDS011;74199;52.014;5.430;2023-11-19T10:35:36;22.58;;;4.25;;
72483;SDS011;74199;52.014;5.430;2023-11-19T10:38:24;23.40;;;4.40;;
72483;SDS011;74199;52.014;5.430;2023-11-19T10:40:52;28.25;;;4.43;;
72483;SDS011;74199;52.014;5.430;2023-11-19T10:43:21;31.27;;;4.13;;
72483;SDS011;74199;52.014;5.430;2023-11-19T10:45:51;34.55;;;4.57;;
72483;SDS011;74199;52.014;5.430;2023-11-19T10:48:18;24.58;;;4.22;;
72483;SDS011;74199;52.014;5.430;2023-11-19T10:50:49;29.05;;;4.50;;
72483;SDS011;74199;52.014;5.430;2023-11-19T10:53:21;28.52;;;4.35;;
72483;SDS011;74199;52.014;5.430;2023-11-19T10:55:53;32.63;;;4.90;;
72483;SDS011;74199;52.014;5.430;2023-11-19T10:58:21;29.27;;;4.68;;
72483;SDS011;74199;52.014;5.430;2023-11-19T11:00:52;28.02;;;4.05;;
72483;SDS011;74199;52.014;5.430;2023-11-19T11:03:24;23.70;;;4.07;;
72483;SDS011;74199;52.014;5.430;2023-11-19T11:05:53;23.23;;;3.92;;
72483;SDS011;74199;52.014;5.430;2023-11-19T11:08:20;23.80;;;3.95;;
72483;SDS011;74199;52.014;5.430;2023-11-19T11:10:54;22.17;;;4.53;;
72483;SDS011;74199;52.014;5.430;2023-11-19T11:13:24;25.15;;;4.10;;
72483;SDS011;74199;52.014;5.430;2023-11-19T11:15:53;23.00;;;5.28;;
72483;SDS011;74199;52.014;5.430;2023-11-19T11:18:24;24.33;;;5.53;;
72483;SDS011;74199;52.014;5.430;2023-11-19T11:20:53;32.88;;;6.80;;
72483;SDS011;74199;52.014;5.430;2023-11-19T11:23:35;27.75;;;6.75;;
72483;SDS011;74199;52.014;5.430;2023-11-19T11:26:15;25.23;;;6.05;;
72483;SDS011;74199;52.014;5.430;2023-11-19T11:29:03;31.50;;;6.90;;
72483;SDS011;74199;52.014;5.430;2023-11-19T11:31:36;27.60;;;7.20;;
72483;SDS011;74199;52.014;5.430;2023-11-19T11:36:49;31.45;;;7.75;;
72483;SDS011;74199;52.014;5.430;2023-11-19T11:39:28;40.22;;;8.77;;
72483;SDS011;74199;52.014;5.430;2023-11-19T11:45:01;26.55;;;7.68;;
72483;SDS011;74199;52.014;5.430;2023-11-19T11:50:15;36.15;;;7.22;;
72483;SDS011;74199;52.014;5.430;2023-11-19T11:55:34;28.52;;;6.65;;
72483;SDS011;74199;52.014;5.430;2023-11-19T11:58:03;36.53;;;7.03;;
72483;SDS011;74199;52.014;5.430;2023-11-19T12:00:36;26.83;;;6.45;;
72483;SDS011;74199;52.014;5.430;2023-11-19T12:03:05;28.35;;;6.85;;
72483;SDS011;74199;52.014;5.430;2023-11-19T12:05:34;28.25;;;7.15;;
72483;SDS011;74199;52.014;5.430;2023-11-19T12:08:07;20.45;;;6.30;;
72483;SDS011;74199;52.014;5.430;2023-11-19T12:10:46;29.55;;;7.82;;
72483;SDS011;74199;52.014;5.430;2023-11-19T12:13:14;33.08;;;8.13;;
72483;SDS011;74199;52.014;5.430;2023-11-19T12:18:28;39.15;;;12.90;;
72483;SDS011;74199;52.014;5.430;2023-11-19T12:20:56;41.80;;;12.75;;
72483;SDS011;74199;52.014;5.430;2023-11-19T12:23:23;37.35;;;10.60;;
72483;SDS011;74199;52.014;5.430;2023-11-19T12:25:51;32.47;;;9.07;;
72483;SDS011;74199;52.014;5.430;2023-11-19T12:28:18;30.70;;;7.63;;
72483;SDS011;74199;52.014;5.430;2023-11-19T12:30:45;29.20;;;8.52;;
72483;SDS011;74199;52.014;5.430;2023-11-19T12:33:14;33.00;;;7.20;;
72483;SDS011;74199;52.014;5.430;2023-11-19T12:35:43;19.98;;;5.80;;
72483;SDS011;74199;52.014;5.430;2023-11-19T12:38:23;24.98;;;5.65;;
72483;SDS011;74199;52.014;5.430;2023-11-19T12:41:03;26.73;;;6.55;;
72483;SDS011;74199;52.014;5.430;2023-11-19T12:43:34;21.63;;;5.68;;
72483;SDS011;74199;52.014;5.430;2023-11-19T12:46:17;27.55;;;5.18;;
72483;SDS011;74199;52.014;5.430;2023-11-19T12:48:48;23.83;;;5.97;;
72483;SDS011;74199;52.014;5.430;2023-11-19T12:51:16;22.77;;;4.68;;
72483;SDS011;74199;52.014;5.430;2023-11-19T12:53:50;24.20;;;5.43;;
72483;SDS011;74199;52.014;5.430;2023-11-19T12:56:20;24.25;;;5.82;;
72483;SDS011;74199;52.014;5.430;2023-11-19T12:58:48;18.65;;;4.75;;
72483;SDS011;74199;52.014;5.430;2023-11-19T13:01:19;24.58;;;5.30;;
72483;SDS011;74199;52.014;5.430;2023-11-19T13:03:47;26.77;;;5.55;;
72483;SDS011;74199;52.014;5.430;2023-11-19T13:06:18;24.17;;;4.88;;
72483;SDS011;74199;52.014;5.430;2023-11-19T13:08:48;23.80;;;4.13;;
72483;SDS011;74199;52.014;5.430;2023-11-19T13:11:34;34.67;;;7.00;;
72483;SDS011;74199;52.014;5.430;2023-11-19T13:14:05;31.77;;;6.18;;
72483;SDS011;74199;52.014;5.430;2023-11-19T13:16:36;27.25;;;5.88;;
72483;SDS011;74199;52.014;5.430;2023-11-19T13:19:05;29.83;;;5.95;;
72483;SDS011;74199;52.014;5.430;2023-11-19T13:21:32;29.83;;;5.80;;
72483;SDS011;74199;52.014;5.430;2023-11-19T13:23:59;26.38;;;4.95;;
72483;SDS011;74199;52.014;5.430;2023-11-19T13:26:26;24.77;;;4.38;;
72483;SDS011;74199;52.014;5.430;2023-11-19T13:28:53;30.63;;;4.75;;
72483;SDS011;74199;52.014;5.430;2023-11-19T13:31:20;20.88;;;4.30;;
72483;SDS011;74199;52.014;5.430;2023-11-19T13:33:47;23.70;;;5.10;;
72483;SDS011;74199;52.014;5.430;2023-11-19T13:36:14;23.83;;;4.65;;
72483;SDS011;74199;52.014;5.430;2023-11-19T13:38:43;22.27;;;4.68;;
72483;SDS011;74199;52.014;5.430;2023-11-19T13:41:13;26.25;;;4.82;;
72483;SDS011;74199;52.014;5.430;2023-11-19T13:43:41;25.85;;;4.55;;
72483;SDS011;74199;52.014;5.430;2023-11-19T13:46:08;29.15;;;5.22;;
72483;SDS011;74199;52.014;5.430;2023-11-19T13:48:38;20.25;;;3.97;;
72483;SDS011;74199;52.014;5.430;2023-11-19T13:51:05;25.95;;;5.07;;
72483;SDS011;74199;52.014;5.430;2023-11-19T13:53:32;26.92;;;6.22;;
72483;SDS011;74199;52.014;5.430;2023-11-19T13:56:17;29.92;;;7.65;;
72483;SDS011;74199;52.014;5.430;2023-11-19T13:58:44;26.60;;;7.85;;
72483;SDS011;74199;52.014;5.430;2023-11-19T14:01:11;42.95;;;8.57;;
72483;SDS011;74199;52.014;5.430;2023-11-19T14:03:40;21.27;;;7.18;;
72483;SDS011;74199;52.014;5.430;2023-11-19T14:06:08;25.25;;;7.20;;
72483;SDS011;74199;52.014;5.430;2023-11-19T14:08:35;26.33;;;7.45;;
72483;SDS011;74199;52.014;5.430;2023-11-19T14:11:02;30.25;;;6.78;;
72483;SDS011;74199;52.014;5.430;2023-11-19T14:13:29;26.02;;;6.93;;
72483;SDS011;74199;52.014;5.430;2023-11-19T14:15:56;22.33;;;5.65;;
72483;SDS011;74199;52.014;5.430;2023-11-19T14:18:23;25.80;;;6.07;;
72483;SDS011;74199;52.014;5.430;2023-11-19T14:20:50;21.40;;;5.68;;
72483;SDS011;74199;52.014;5.430;2023-11-19T14:23:17;26.90;;;5.55;;
72483;SDS011;74199;52.014;5.430;2023-11-19T14:25:44;29.98;;;6.43;;
72483;SDS011;74199;52.014;5.430;2023-11-19T14:28:11;21.25;;;5.43;;
72483;SDS011;74199;52.014;5.430;2023-11-19T14:30:38;22.27;;;5.47;;
72483;SDS011;74199;52.014;5.430;2023-11-19T14:33:05;25.80;;;5.30;;
72483;SDS011;74199;52.014;5.430;2023-11-19T14:35:32;22.25;;;5.38;;
72483;SDS011;74199;52.014;5.430;2023-11-19T14:38:00;21.05;;;5.32;;
72483;SDS011;74199;52.014;5.430;2023-11-19T14:40:31;23.95;;;4.72;;
72483;SDS011;74199;52.014;5.430;2023-11-19T14:43:01;28.98;;;5.10;;
72483;SDS011;74199;52.014;5.430;2023-11-19T14:45:28;27.67;;;4.65;;
72483;SDS011;74199;52.014;5.430;2023-11-19T14:48:04;23.88;;;4.35;;
72483;SDS011;74199;52.014;5.430;2023-11-19T14:50:31;19.58;;;4.47;;
72483;SDS011;74199;52.014;5.430;2023-11-19T14:52:58;28.55;;;5.10;;
72483;SDS011;74199;52.014;5.430;2023-11-19T14:55:25;25.50;;;4.78;;
72483;SDS011;74199;52.014;5.430;2023-11-19T14:57:52;19.13;;;4.20;;
72483;SDS011;74199;52.014;5.430;2023-11-19T15:00:31;23.90;;;3.97;;
72483;SDS011;74199;52.014;5.430;2023-11-19T15:03:00;18.17;;;4.32;;